sensor_id;sensor_type;location;lat;lon;timestamp;P1;durP1;ratioP1;P2;durP2;ratioP2
73672;SDS011;61972;19.480;-99.240;2024-03-08T00:01:35;12.98;;;6.80;;
73672;SDS011;61972;19.480;-99.240;2024-03-08T00:04:01;10.25;;;6.72;;
73672;SDS011;61972;19.480;-99.240;2024-03-08T00:06:28;13.02;;;7.30;;
73672;SDS011;61972;19.480;-99.240;2024-03-08T00:08:54;17.35;;;6.70;;
73672;SDS011;61972;19.480;-99.240;2024-03-08T00:11:21;10.17;;;5.87;;
73672;SDS011;61972;19.480;-99.240;2024-03-08T00:13:47;11.07;;;5.68;;
73672;SDS011;61972;19.480;-99.240;2024-03-08T00:16:13;12.43;;;5.72;;
73672;SDS011;61972;19.480;-99.240;2024-03-08T00:18:39;10.52;;;5.00;;
73672;SDS011;61972;19.480;-99.240;2024-03-08T00:21:05;14.10;;;5.45;;
73672;SDS011;61972;19.480;-99.240;2024-03-08T00:23:34;16.60;;;5.23;;
73672;SDS011;61972;19.480;-99.240;2024-03-08T00:26:00;8.45;;;4.93;;
73672;SDS011;61972;19.480;-99.240;2024-03-08T00:28:28;12.43;;;4.72;;
73672;SDS011;61972;19.480;-99.240;2024-03-08T00:30:56;15.88;;;5.38;;
73672;SDS011;61972;19.480;-99.240;2024-03-08T00:33:22;15.82;;;5.30;;
73672;SDS011;61972;19.480;-99.240;2024-03-08T00:35:48;10.07;;;4.50;;
73672;SDS011;61972;19.480;-99.240;2024-03-08T00:38:14;11.98;;;4.35;;
73672;SDS011;61972;19.480;-99.240;2024-03-08T00:40:40;9.45;;;4.60;;
73672;SDS011;61972;19.480;-99.240;2024-03-08T00:43:06;10.70;;;4.60;;
73672;SDS011;61972;19.480;-99.240;2024-03-08T00:45:32;9.05;;;4.40;;
73672;SDS011;61972;19.480;-99.240;2024-03-08T00:47:58;13.40;;;4.57;;
73672;SDS011;61972;19.480;-99.240;2024-03-08T00:50:25;7.78;;;3.92;;
73672;SDS011;61972;19.480;-99.240;2024-03-08T00:52:51;8.75;;;4.35;;
73672;SDS011;61972;19.480;-99.240;2024-03-08T00:55:18;7.70;;;4.05;;
73672;SDS011;61972;19.480;-99.240;2024-03-08T00:57:44;12.48;;;3.90;;
73672;SDS011;61972;19.480;-99.240;2024-03-08T01:00:10;11.03;;;4.00;;
73672;SDS011;61972;19.480;-99.240;2024-03-08T01:02:38;7.72;;;3.70;;
73672;SDS011;61972;19.480;-99.240;2024-03-08T01:05:05;6.38;;;3.45;;
73672;SDS011;61972;19.480;-99.240;2024-03-08T01:07:33;7.43;;;3.65;;
73672;SDS011;61972;19.480;-99.240;2024-03-08T01:10:03;10.13;;;4.10;;
73672;SDS011;61972;19.480;-99.240;2024-03-08T01:12:29;7.30;;;3.43;;
73672;SDS011;61972;19.480;-99.240;2024-03-08T01:14:55;9.45;;;3.80;;
73672;SDS011;61972;19.480;-99.240;2024-03-08T01:17:23;9.40;;;3.95;;
73672;SDS011;61972;19.480;-99.240;2024-03-08T01:19:50;14.25;;;3.60;;
73672;SDS011;61972;19.480;-99.240;2024-03-08T01:22:16;11.57;;;3.58;;
73672;SDS011;61972;19.480;-99.240;2024-03-08T01:24:42;13.50;;;3.87;;
73672;SDS011;61972;19.480;-99.240;2024-03-08T01:27:08;8.90;;;3.78;;
73672;SDS011;61972;19.480;-99.240;2024-03-08T01:29:34;12.10;;;3.90;;
73672;SDS011;61972;19.480;-99.240;2024-03-08T01:32:00;9.68;;;4.38;;
73672;SDS011;61972;19.480;-99.240;2024-03-08T01:34:27;13.50;;;4.78;;
73672;SDS011;61972;19.480;-99.240;2024-03-08T01:36:54;8.43;;;4.10;;
73672;SDS011;61972;19.480;-99.240;2024-03-08T01:39:23;11.25;;;4.80;;
73672;SDS011;61972;19.480;-99.240;2024-03-08T01:41:49;8.30;;;5.05;;
73672;SDS011;61972;19.480;-99.240;2024-03-08T01:44:15;9.45;;;4.80;;
73672;SDS011;61972;19.480;-99.240;2024-03-08T01:46:45;10.40;;;5.75;;
73672;SDS011;61972;19.480;-99.240;2024-03-08T01:49:13;10.20;;;5.27;;
73672;SDS011;61972;19.480;-99.240;2024-03-08T01:51:40;11.27;;;5.70;;
73672;SDS011;61972;19.480;-99.240;2024-03-08T01:54:07;11.27;;;5.60;;
73672;SDS011;61972;19.480;-99.240;2024-03-08T01:56:37;12.68;;;5.68;;
73672;SDS011;61972;19.480;-99.240;2024-03-08T01:59:05;10.63;;;6.53;;
73672;SDS011;61972;19.480;-99.240;2024-03-08T02:01:33;14.03;;;7.27;;
73672;SDS011;61972;19.480;-99.240;2024-03-08T02:04:00;16.92;;;7.70;;
73672;SDS011;61972;19.480;-99.240;2024-03-08T02:06:26;14.30;;;7.93;;
73672;SDS011;61972;19.480;-99.240;2024-03-08T02:08:52;16.23;;;6.85;;
73672;SDS011;61972;19.480;-99.240;2024-03-08T02:11:18;16.38;;;7.63;;
73672;SDS011;61972;19.480;-99.240;2024-03-08T02:13:46;12.93;;;6.50;;
73672;SDS011;61972;19.480;-99.240;2024-03-08T02:16:12;12.95;;;6.50;;
73672;SDS011;61972;19.480;-99.240;2024-03-08T02:18:45;13.98;;;7.35;;
73672;SDS011;61972;19.480;-99.240;2024-03-08T02:21:12;13.00;;;6.80;;
73672;SDS011;61972;19.480;-99.240;2024-03-08T02:23:39;11.63;;;6.35;;
73672;SDS011;61972;19.480;-99.240;2024-03-08T02:26:06;12.20;;;6.50;;
73672;SDS011;61972;19.480;-99.240;2024-03-08T02:28:32;11.48;;;6.88;;
73672;SDS011;61972;19.480;-99.240;2024-03-08T02:30:59;12.60;;;6.30;;
73672;SDS011;61972;19.480;-99.240;2024-03-08T02:33:26;11.85;;;5.97;;
73672;SDS011;61972;19.480;-99.240;2024-03-08T02:35:54;14.07;;;6.53;;
73672;SDS011;61972;19.480;-99.240;2024-03-08T02:38:23;13.13;;;6.33;;
73672;SDS011;61972;19.480;-99.240;2024-03-08T02:40:50;9.90;;;6.05;;
73672;SDS011;61972;19.480;-99.240;2024-03-08T02:43:18;10.80;;;5.97;;
73672;SDS011;61972;19.480;-99.240;2024-03-08T02:45:45;8.93;;;6.25;;
73672;SDS011;61972;19.480;-99.240;2024-03-08T02:48:12;15.13;;;6.10;;
73672;SDS011;61972;19.480;-99.240;2024-03-08T02:50:39;11.40;;;5.30;;
73672;SDS011;61972;19.480;-99.240;2024-03-08T02:53:07;10.55;;;5.95;;
73672;SDS011;61972;19.480;-99.240;2024-03-08T02:55:35;9.35;;;5.70;;
73672;SDS011;61972;19.480;-99.240;2024-03-08T02:58:01;17.50;;;5.60;;
73672;SDS011;61972;19.480;-99.240;2024-03-08T03:00:33;13.05;;;5.82;;
73672;SDS011;61972;19.480;-99.240;2024-03-08T03:03:00;10.20;;;5.80;;
73672;SDS011;61972;19.480;-99.240;2024-03-08T03:05:28;11.13;;;5.45;;
73672;SDS011;61972;19.480;-99.240;2024-03-08T03:07:55;8.77;;;5.32;;
73672;SDS011;61972;19.480;-99.240;2024-03-08T03:10:24;14.20;;;5.32;;
73672;SDS011;61972;19.480;-99.240;2024-03-08T03:12:51;11.02;;;5.05;;
73672;SDS011;61972;19.480;-99.240;2024-03-08T03:15:18;10.83;;;5.00;;
73672;SDS011;61972;19.480;-99.240;2024-03-08T03:17:47;9.23;;;4.78;;
73672;SDS011;61972;19.480;-99.240;2024-03-08T03:20:16;8.30;;;4.70;;
73672;SDS011;61972;19.480;-99.240;2024-03-08T03:22:48;8.27;;;4.47;;
73672;SDS011;61972;19.480;-99.240;2024-03-08T03:25:18;8.13;;;4.53;;
73672;SDS011;61972;19.480;-99.240;2024-03-08T03:28:05;7.97;;;4.47;;
73672;SDS011;61972;19.480;-99.240;2024-03-08T03:30:32;7.30;;;4.22;;
73672;SDS011;61972;19.480;-99.240;2024-03-08T03:33:02;8.05;;;4.40;;
73672;SDS011;61972;19.480;-99.240;2024-03-08T03:35:35;9.75;;;4.20;;
73672;SDS011;61972;19.480;-99.240;2024-03-08T03:38:01;7.50;;;4.47;;
73672;SDS011;61972;19.480;-99.240;2024-03-08T03:40:38;8.73;;;4.30;;
73672;SDS011;61972;19.480;-99.240;2024-03-08T03:43:06;7.43;;;4.55;;
73672;SDS011;61972;19.480;-99.240;2024-03-08T03:45:32;7.97;;;4.20;;
73672;SDS011;61972;19.480;-99.240;2024-03-08T03:48:05;7.28;;;4.43;;
73672;SDS011;61972;19.480;-99.240;2024-03-08T03:50:32;7.65;;;4.45;;
73672;SDS011;61972;19.480;-99.240;2024-03-08T03:53:01;8.00;;;4.40;;
73672;SDS011;61972;19.480;-99.240;2024-03-08T03:55:28;9.07;;;4.40;;
73672;SDS011;61972;19.480;-99.240;2024-03-08T03:57:55;7.43;;;4.43;;
73672;SDS011;61972;19.480;-99.240;2024-03-08T04:00:21;8.77;;;4.45;;
73672;SDS011;61972;19.480;-99.240;2024-03-08T04:02:47;7.78;;;4.20;;
73672;SDS011;61972;19.480;-99.240;2024-03-08T04:05:14;6.63;;;4.10;;
73672;SDS011;61972;19.480;-99.240;2024-03-08T04:07:40;8.65;;;4.22;;
73672;SDS011;61972;19.480;-99.240;2024-03-08T04:10:06;7.57;;;4.38;;
73672;SDS011;61972;19.480;-99.240;2024-03-08T04:12:34;6.70;;;4.22;;
73672;SDS011;61972;19.480;-99.240;2024-03-08T04:15:00;13.18;;;4.93;;
73672;SDS011;61972;19.480;-99.240;2024-03-08T04:17:27;9.30;;;4.87;;
73672;SDS011;61972;19.480;-99.240;2024-03-08T04:19:53;9.60;;;4.93;;
73672;SDS011;61972;19.480;-99.240;2024-03-08T04:22:20;14.45;;;5.47;;
73672;SDS011;61972;19.480;-99.240;2024-03-08T04:24:46;10.85;;;6.22;;
73672;SDS011;61972;19.480;-99.240;2024-03-08T04:27:12;17.65;;;7.45;;
73672;SDS011;61972;19.480;-99.240;2024-03-08T04:29:39;13.93;;;8.07;;
73672;SDS011;61972;19.480;-99.240;2024-03-08T04:32:06;18.73;;;9.43;;
73672;SDS011;61972;19.480;-99.240;2024-03-08T04:34:34;15.43;;;9.13;;
73672;SDS011;61972;19.480;-99.240;2024-03-08T04:37:01;20.40;;;9.25;;
73672;SDS011;61972;19.480;-99.240;2024-03-08T04:39:27;15.18;;;8.73;;
73672;SDS011;61972;19.480;-99.240;2024-03-08T04:41:54;14.70;;;7.80;;
73672;SDS011;61972;19.480;-99.240;2024-03-08T04:44:23;16.38;;;7.60;;
73672;SDS011;61972;19.480;-99.240;2024-03-08T04:46:50;12.43;;;7.55;;
73672;SDS011;61972;19.480;-99.240;2024-03-08T04:49:16;13.13;;;7.45;;
73672;SDS011;61972;19.480;-99.240;2024-03-08T04:51:42;13.80;;;7.25;;
73672;SDS011;61972;19.480;-99.240;2024-03-08T04:54:10;13.70;;;7.37;;
73672;SDS011;61972;19.480;-99.240;2024-03-08T04:56:36;13.65;;;7.20;;
73672;SDS011;61972;19.480;-99.240;2024-03-08T04:59:02;14.15;;;6.82;;
73672;SDS011;61972;19.480;-99.240;2024-03-08T05:01:28;12.38;;;7.10;;
73672;SDS011;61972;19.480;-99.240;2024-03-08T05:03:54;14.88;;;7.80;;
73672;SDS011;61972;19.480;-99.240;2024-03-08T05:06:20;12.67;;;7.03;;
73672;SDS011;61972;19.480;-99.240;2024-03-08T05:08:46;15.18;;;8.13;;
73672;SDS011;61972;19.480;-99.240;2024-03-08T05:11:13;17.98;;;7.78;;
73672;SDS011;61972;19.480;-99.240;2024-03-08T05:13:40;12.75;;;7.72;;
73672;SDS011;61972;19.480;-99.240;2024-03-08T05:16:06;14.93;;;7.53;;
73672;SDS011;61972;19.480;-99.240;2024-03-08T05:18:33;13.33;;;7.50;;
73672;SDS011;61972;19.480;-99.240;2024-03-08T05:21:01;13.07;;;7.20;;
73672;SDS011;61972;19.480;-99.240;2024-03-08T05:23:29;15.10;;;7.55;;
73672;SDS011;61972;19.480;-99.240;2024-03-08T05:25:56;12.63;;;7.43;;
73672;SDS011;61972;19.480;-99.240;2024-03-08T05:28:22;13.27;;;7.10;;
73672;SDS011;61972;19.480;-99.240;2024-03-08T05:30:49;12.00;;;6.53;;
73672;SDS011;61972;19.480;-99.240;2024-03-08T05:33:15;13.18;;;7.03;;
73672;SDS011;61972;19.480;-99.240;2024-03-08T05:35:41;14.95;;;7.10;;
73672;SDS011;61972;19.480;-99.240;2024-03-08T05:38:07;10.80;;;6.60;;
73672;SDS011;61972;19.480;-99.240;2024-03-08T05:40:33;13.85;;;7.10;;
73672;SDS011;61972;19.480;-99.240;2024-03-08T05:42:59;10.67;;;6.60;;
73672;SDS011;61972;19.480;-99.240;2024-03-08T05:45:25;11.85;;;6.45;;
73672;SDS011;61972;19.480;-99.240;2024-03-08T05:47:52;13.38;;;6.47;;
73672;SDS011;61972;19.480;-99.240;2024-03-08T05:50:18;10.75;;;6.13;;
73672;SDS011;61972;19.480;-99.240;2024-03-08T05:52:44;11.48;;;6.20;;
73672;SDS011;61972;19.480;-99.240;2024-03-08T05:55:13;11.47;;;6.27;;
73672;SDS011;61972;19.480;-99.240;2024-03-08T05:57:40;10.10;;;6.20;;
73672;SDS011;61972;19.480;-99.240;2024-03-08T06:00:07;10.93;;;5.95;;
73672;SDS011;61972;19.480;-99.240;2024-03-08T06:02:38;10.98;;;5.72;;
73672;SDS011;61972;19.480;-99.240;2024-03-08T06:05:10;10.38;;;6.00;;
73672;SDS011;61972;19.480;-99.240;2024-03-08T06:07:36;8.70;;;5.50;;
73672;SDS011;61972;19.480;-99.240;2024-03-08T06:10:07;9.95;;;6.00;;
73672;SDS011;61972;19.480;-99.240;2024-03-08T06:12:39;10.70;;;6.10;;
73672;SDS011;61972;19.480;-99.240;2024-03-08T06:15:09;10.88;;;6.30;;
73672;SDS011;61972;19.480;-99.240;2024-03-08T06:17:40;9.68;;;5.70;;
73672;SDS011;61972;19.480;-99.240;2024-03-08T06:20:06;9.83;;;5.80;;
73672;SDS011;61972;19.480;-99.240;2024-03-08T06:22:39;9.90;;;5.60;;
73672;SDS011;61972;19.480;-99.240;2024-03-08T06:25:09;10.70;;;5.55;;
73672;SDS011;61972;19.480;-99.240;2024-03-08T06:27:46;9.35;;;4.90;;
73672;SDS011;61972;19.480;-99.240;2024-03-08T06:30:12;10.15;;;5.90;;
73672;SDS011;61972;19.480;-99.240;2024-03-08T06:32:41;10.50;;;5.73;;
73672;SDS011;61972;19.480;-99.240;2024-03-08T06:35:08;9.82;;;5.57;;
73672;SDS011;61972;19.480;-99.240;2024-03-08T06:37:35;9.40;;;5.55;;
73672;SDS011;61972;19.480;-99.240;2024-03-08T06:40:02;10.13;;;5.43;;
73672;SDS011;61972;19.480;-99.240;2024-03-08T06:42:33;10.15;;;5.53;;
73672;SDS011;61972;19.480;-99.240;2024-03-08T06:45:00;8.90;;;5.17;;
73672;SDS011;61972;19.480;-99.240;2024-03-08T06:47:30;9.40;;;5.03;;
73672;SDS011;61972;19.480;-99.240;2024-03-08T06:49:57;17.38;;;6.90;;
73672;SDS011;61972;19.480;-99.240;2024-03-08T06:52:23;11.88;;;5.60;;
73672;SDS011;61972;19.480;-99.240;2024-03-08T06:54:49;10.88;;;5.60;;
73672;SDS011;61972;19.480;-99.240;2024-03-08T06:57:17;18.80;;;5.30;;
73672;SDS011;61972;19.480;-99.240;2024-03-08T06:59:47;9.80;;;4.95;;
73672;SDS011;61972;19.480;-99.240;2024-03-08T07:02:13;9.32;;;5.30;;
73672;SDS011;61972;19.480;-99.240;2024-03-08T07:04:40;9.52;;;5.15;;
73672;SDS011;61972;19.480;-99.240;2024-03-08T07:07:06;9.43;;;5.10;;
73672;SDS011;61972;19.480;-99.240;2024-03-08T07:09:35;10.77;;;5.10;;
73672;SDS011;61972;19.480;-99.240;2024-03-08T07:12:02;12.88;;;5.10;;
73672;SDS011;61972;19.480;-99.240;2024-03-08T07:14:29;9.38;;;4.72;;
73672;SDS011;61972;19.480;-99.240;2024-03-08T07:16:56;9.77;;;4.95;;
73672;SDS011;61972;19.480;-99.240;2024-03-08T07:19:22;8.95;;;4.57;;
73672;SDS011;61972;19.480;-99.240;2024-03-08T07:21:49;9.07;;;5.03;;
73672;SDS011;61972;19.480;-99.240;2024-03-08T07:24:15;8.20;;;4.63;;
73672;SDS011;61972;19.480;-99.240;2024-03-08T07:27:04;9.43;;;4.82;;
73672;SDS011;61972;19.480;-99.240;2024-03-08T07:29:31;11.35;;;4.90;;
73672;SDS011;61972;19.480;-99.240;2024-03-08T07:32:00;11.32;;;4.60;;
73672;SDS011;61972;19.480;-99.240;2024-03-08T07:34:44;8.50;;;4.80;;
73672;SDS011;61972;19.480;-99.240;2024-03-08T07:37:10;9.25;;;4.75;;
73672;SDS011;61972;19.480;-99.240;2024-03-08T07:39:37;10.43;;;5.13;;
73672;SDS011;61972;19.480;-99.240;2024-03-08T07:42:06;9.20;;;4.43;;
73672;SDS011;61972;19.480;-99.240;2024-03-08T07:44:32;9.25;;;4.90;;
73672;SDS011;61972;19.480;-99.240;2024-03-08T07:46:58;9.20;;;4.43;;
73672;SDS011;61972;19.480;-99.240;2024-03-08T07:49:25;7.75;;;4.63;;
73672;SDS011;61972;19.480;-99.240;2024-03-08T07:51:51;10.20;;;4.75;;
73672;SDS011;61972;19.480;-99.240;2024-03-08T07:54:17;7.50;;;4.40;;
73672;SDS011;61972;19.480;-99.240;2024-03-08T07:56:43;7.53;;;3.92;;
73672;SDS011;61972;19.480;-99.240;2024-03-08T07:59:10;8.63;;;4.13;;
73672;SDS011;61972;19.480;-99.240;2024-03-08T08:01:37;8.52;;;4.60;;
73672;SDS011;61972;19.480;-99.240;2024-03-08T08:04:03;8.88;;;4.47;;
73672;SDS011;61972;19.480;-99.240;2024-03-08T08:06:30;7.57;;;4.07;;
73672;SDS011;61972;19.480;-99.240;2024-03-08T08:09:00;7.90;;;4.20;;
73672;SDS011;61972;19.480;-99.240;2024-03-08T08:11:26;7.37;;;4.20;;
73672;SDS011;61972;19.480;-99.240;2024-03-08T08:13:56;6.95;;;4.13;;
73672;SDS011;61972;19.480;-99.240;2024-03-08T08:16:25;6.95;;;4.28;;
73672;SDS011;61972;19.480;-99.240;2024-03-08T08:18:51;7.45;;;3.97;;
73672;SDS011;61972;19.480;-99.240;2024-03-08T08:21:18;6.95;;;3.75;;
73672;SDS011;61972;19.480;-99.240;2024-03-08T08:23:44;8.20;;;3.73;;
73672;SDS011;61972;19.480;-99.240;2024-03-08T08:26:11;9.73;;;4.00;;
73672;SDS011;61972;19.480;-99.240;2024-03-08T08:28:37;7.32;;;4.03;;
73672;SDS011;61972;19.480;-99.240;2024-03-08T08:31:03;6.68;;;3.83;;
73672;SDS011;61972;19.480;-99.240;2024-03-08T08:33:29;7.05;;;3.90;;
73672;SDS011;61972;19.480;-99.240;2024-03-08T08:35:56;7.50;;;3.60;;
73672;SDS011;61972;19.480;-99.240;2024-03-08T08:38:22;7.10;;;3.78;;
73672;SDS011;61972;19.480;-99.240;2024-03-08T08:40:48;6.90;;;3.83;;
73672;SDS011;61972;19.480;-99.240;2024-03-08T08:43:15;6.50;;;3.83;;
73672;SDS011;61972;19.480;-99.240;2024-03-08T08:45:42;6.93;;;3.88;;
73672;SDS011;61972;19.480;-99.240;2024-03-08T08:48:08;7.07;;;3.73;;
73672;SDS011;61972;19.480;-99.240;2024-03-08T08:50:35;7.00;;;3.60;;
73672;SDS011;61972;19.480;-99.240;2024-03-08T08:53:02;6.82;;;3.92;;
73672;SDS011;61972;19.480;-99.240;2024-03-08T08:55:28;6.90;;;3.70;;
73672;SDS011;61972;19.480;-99.240;2024-03-08T08:57:56;6.65;;;3.70;;
73672;SDS011;61972;19.480;-99.240;2024-03-08T09:00:22;5.63;;;3.67;;
73672;SDS011;61972;19.480;-99.240;2024-03-08T09:02:52;5.93;;;3.55;;
73672;SDS011;61972;19.480;-99.240;2024-03-08T09:05:20;6.13;;;3.70;;
73672;SDS011;61972;19.480;-99.240;2024-03-08T09:07:49;5.95;;;3.42;;
73672;SDS011;61972;19.480;-99.240;2024-03-08T09:10:15;7.00;;;3.53;;
73672;SDS011;61972;19.480;-99.240;2024-03-08T09:12:41;6.00;;;3.40;;
73672;SDS011;61972;19.480;-99.240;2024-03-08T09:15:08;7.30;;;4.03;;
73672;SDS011;61972;19.480;-99.240;2024-03-08T09:17:36;6.60;;;3.70;;
73672;SDS011;61972;19.480;-99.240;2024-03-08T09:20:06;6.13;;;3.28;;
73672;SDS011;61972;19.480;-99.240;2024-03-08T09:22:34;6.45;;;3.40;;
73672;SDS011;61972;19.480;-99.240;2024-03-08T09:25:00;5.03;;;3.13;;
73672;SDS011;61972;19.480;-99.240;2024-03-08T09:27:27;6.88;;;3.40;;
73672;SDS011;61972;19.480;-99.240;2024-03-08T09:29:54;6.30;;;3.50;;
73672;SDS011;61972;19.480;-99.240;2024-03-08T09:32:20;5.78;;;3.00;;
73672;SDS011;61972;19.480;-99.240;2024-03-08T09:34:48;6.03;;;3.60;;
73672;SDS011;61972;19.480;-99.240;2024-03-08T09:37:14;5.80;;;3.53;;
73672;SDS011;61972;19.480;-99.240;2024-03-08T09:39:40;5.85;;;3.50;;
73672;SDS011;61972;19.480;-99.240;2024-03-08T09:42:06;6.10;;;3.50;;
73672;SDS011;61972;19.480;-99.240;2024-03-08T09:44:35;5.32;;;3.10;;
73672;SDS011;61972;19.480;-99.240;2024-03-08T09:47:02;6.30;;;3.65;;
73672;SDS011;61972;19.480;-99.240;2024-03-08T09:49:29;9.27;;;3.13;;
73672;SDS011;61972;19.480;-99.240;2024-03-08T09:51:55;6.35;;;3.28;;
73672;SDS011;61972;19.480;-99.240;2024-03-08T09:54:22;5.50;;;3.25;;
73672;SDS011;61972;19.480;-99.240;2024-03-08T09:56:49;5.38;;;3.20;;
73672;SDS011;61972;19.480;-99.240;2024-03-08T09:59:17;5.10;;;2.90;;
73672;SDS011;61972;19.480;-99.240;2024-03-08T10:01:49;6.70;;;3.33;;
73672;SDS011;61972;19.480;-99.240;2024-03-08T10:04:17;5.95;;;3.17;;
73672;SDS011;61972;19.480;-99.240;2024-03-08T10:06:45;5.45;;;3.13;;
73672;SDS011;61972;19.480;-99.240;2024-03-08T10:09:12;4.90;;;2.90;;
73672;SDS011;61972;19.480;-99.240;2024-03-08T10:11:39;6.00;;;3.33;;
73672;SDS011;61972;19.480;-99.240;2024-03-08T10:14:07;4.87;;;3.07;;
73672;SDS011;61972;19.480;-99.240;2024-03-08T10:16:37;5.65;;;3.10;;
73672;SDS011;61972;19.480;-99.240;2024-03-08T10:19:04;4.70;;;2.70;;
73672;SDS011;61972;19.480;-99.240;2024-03-08T10:21:31;5.97;;;3.17;;
73672;SDS011;61972;19.480;-99.240;2024-03-08T10:23:58;4.85;;;3.03;;
73672;SDS011;61972;19.480;-99.240;2024-03-08T10:26:25;5.20;;;3.00;;
73672;SDS011;61972;19.480;-99.240;2024-03-08T10:28:51;5.43;;;3.00;;
73672;SDS011;61972;19.480;-99.240;2024-03-08T10:31:18;5.25;;;2.85;;
73672;SDS011;61972;19.480;-99.240;2024-03-08T10:33:48;5.05;;;3.00;;
73672;SDS011;61972;19.480;-99.240;2024-03-08T10:36:17;4.78;;;2.60;;
73672;SDS011;61972;19.480;-99.240;2024-03-08T10:38:44;5.53;;;2.90;;
73672;SDS011;61972;19.480;-99.240;2024-03-08T10:41:14;4.93;;;3.00;;
73672;SDS011;61972;19.480;-99.240;2024-03-08T10:49:51;5.28;;;2.67;;
73672;SDS011;61972;19.480;-99.240;2024-03-08T10:52:38;6.07;;;3.07;;
73672;SDS011;61972;19.480;-99.240;2024-03-08T10:55:10;4.57;;;2.70;;
73672;SDS011;61972;19.480;-99.240;2024-03-08T10:57:38;4.63;;;2.63;;
73672;SDS011;61972;19.480;-99.240;2024-03-08T11:00:07;5.03;;;2.83;;
73672;SDS011;61972;19.480;-99.240;2024-03-08T11:02:37;4.53;;;2.58;;
73672;SDS011;61972;19.480;-99.240;2024-03-08T11:05:04;4.83;;;3.00;;
73672;SDS011;61972;19.480;-99.240;2024-03-08T11:07:34;5.07;;;2.60;;
73672;SDS011;61972;19.480;-99.240;2024-03-08T11:10:03;4.40;;;2.50;;
73672;SDS011;61972;19.480;-99.240;2024-03-08T11:12:35;4.80;;;2.70;;
73672;SDS011;61972;19.480;-99.240;2024-03-08T11:15:09;5.32;;;2.65;;
73672;SDS011;61972;19.480;-99.240;2024-03-08T11:17:47;4.43;;;2.40;;
73672;SDS011;61972;19.480;-99.240;2024-03-08T11:20:15;5.35;;;2.70;;
73672;SDS011;61972;19.480;-99.240;2024-03-08T11:22:49;4.57;;;2.50;;
73672;SDS011;61972;19.480;-99.240;2024-03-08T11:25:36;5.18;;;2.72;;
73672;SDS011;61972;19.480;-99.240;2024-03-08T11:33:25;3.60;;;2.40;;
73672;SDS011;61972;19.480;-99.240;2024-03-08T11:36:02;4.75;;;2.50;;
73672;SDS011;61972;19.480;-99.240;2024-03-08T11:38:44;5.15;;;3.08;;
73672;SDS011;61972;19.480;-99.240;2024-03-08T11:41:14;3.95;;;2.50;;
73672;SDS011;61972;19.480;-99.240;2024-03-08T11:43:43;4.20;;;2.60;;
73672;SDS011;61972;19.480;-99.240;2024-03-08T11:46:12;4.10;;;2.42;;
73672;SDS011;61972;19.480;-99.240;2024-03-08T11:48:40;3.92;;;2.40;;
73672;SDS011;61972;19.480;-99.240;2024-03-08T11:51:11;4.95;;;2.42;;
73672;SDS011;61972;19.480;-99.240;2024-03-08T11:53:37;4.75;;;2.50;;
73672;SDS011;61972;19.480;-99.240;2024-03-08T11:56:08;3.77;;;2.50;;
73672;SDS011;61972;19.480;-99.240;2024-03-08T11:58:38;4.35;;;2.47;;
73672;SDS011;61972;19.480;-99.240;2024-03-08T12:01:05;5.43;;;2.60;;
73672;SDS011;61972;19.480;-99.240;2024-03-08T12:03:34;5.25;;;2.70;;
73672;SDS011;61972;19.480;-99.240;2024-03-08T12:06:00;4.88;;;2.15;;
73672;SDS011;61972;19.480;-99.240;2024-03-08T12:08:30;4.00;;;2.30;;
73672;SDS011;61972;19.480;-99.240;2024-03-08T12:10:57;4.03;;;2.35;;
73672;SDS011;61972;19.480;-99.240;2024-03-08T12:13:27;4.20;;;2.38;;
73672;SDS011;61972;19.480;-99.240;2024-03-08T12:15:58;4.07;;;2.38;;
73672;SDS011;61972;19.480;-99.240;2024-03-08T12:18:25;4.57;;;2.30;;
73672;SDS011;61972;19.480;-99.240;2024-03-08T12:21:14;3.80;;;2.00;;
73672;SDS011;61972;19.480;-99.240;2024-03-08T12:23:42;5.53;;;2.30;;
73672;SDS011;61972;19.480;-99.240;2024-03-08T12:26:11;4.07;;;2.30;;
73672;SDS011;61972;19.480;-99.240;2024-03-08T12:28:41;3.85;;;2.40;;
73672;SDS011;61972;19.480;-99.240;2024-03-08T12:31:13;4.90;;;2.35;;
73672;SDS011;61972;19.480;-99.240;2024-03-08T12:36:18;3.90;;;2.28;;
73672;SDS011;61972;19.480;-99.240;2024-03-08T12:38:47;3.83;;;2.10;;
73672;SDS011;61972;19.480;-99.240;2024-03-08T12:41:17;4.05;;;2.35;;
73672;SDS011;61972;19.480;-99.240;2024-03-08T12:43:44;3.90;;;2.20;;
73672;SDS011;61972;19.480;-99.240;2024-03-08T12:46:15;5.27;;;2.10;;
73672;SDS011;61972;19.480;-99.240;2024-03-08T12:48:42;4.00;;;2.13;;
73672;SDS011;61972;19.480;-99.240;2024-03-08T12:51:12;3.58;;;2.13;;
73672;SDS011;61972;19.480;-99.240;2024-03-08T12:53:39;4.32;;;2.40;;
73672;SDS011;61972;19.480;-99.240;2024-03-08T12:56:11;5.45;;;2.30;;
73672;SDS011;61972;19.480;-99.240;2024-03-08T12:58:38;3.90;;;2.20;;
73672;SDS011;61972;19.480;-99.240;2024-03-08T13:01:06;4.03;;;2.30;;
73672;SDS011;61972;19.480;-99.240;2024-03-08T13:03:35;4.80;;;2.20;;
73672;SDS011;61972;19.480;-99.240;2024-03-08T13:06:05;4.60;;;2.20;;
73672;SDS011;61972;19.480;-99.240;2024-03-08T13:08:37;3.83;;;2.20;;
73672;SDS011;61972;19.480;-99.240;2024-03-08T13:11:07;4.43;;;2.30;;
73672;SDS011;61972;19.480;-99.240;2024-03-08T13:13:36;3.60;;;2.28;;
73672;SDS011;61972;19.480;-99.240;2024-03-08T13:16:05;3.55;;;2.03;;
73672;SDS011;61972;19.480;-99.240;2024-03-08T13:18:36;4.25;;;2.30;;
73672;SDS011;61972;19.480;-99.240;2024-03-08T13:21:03;3.72;;;2.03;;
73672;SDS011;61972;19.480;-99.240;2024-03-08T13:23:33;3.87;;;2.07;;
73672;SDS011;61972;19.480;-99.240;2024-03-08T13:26:08;3.42;;;2.00;;
73672;SDS011;61972;19.480;-99.240;2024-03-08T13:28:43;3.85;;;2.30;;
73672;SDS011;61972;19.480;-99.240;2024-03-08T13:31:14;3.72;;;1.95;;
73672;SDS011;61972;19.480;-99.240;2024-03-08T13:33:40;3.10;;;1.83;;
73672;SDS011;61972;19.480;-99.240;2024-03-08T13:36:07;3.97;;;2.10;;
73672;SDS011;61972;19.480;-99.240;2024-03-08T13:38:44;3.00;;;1.80;;
73672;SDS011;61972;19.480;-99.240;2024-03-08T13:41:12;3.60;;;1.80;;
73672;SDS011;61972;19.480;-99.240;2024-03-08T13:43:48;4.15;;;2.03;;
73672;SDS011;61972;19.480;-99.240;2024-03-08T13:46:18;3.40;;;1.90;;
73672;SDS011;61972;19.480;-99.240;2024-03-08T13:48:44;3.13;;;1.80;;
73672;SDS011;61972;19.480;-99.240;2024-03-08T13:51:10;3.65;;;2.00;;
73672;SDS011;61972;19.480;-99.240;2024-03-08T13:53:40;2.50;;;1.60;;
73672;SDS011;61972;19.480;-99.240;2024-03-08T13:56:09;3.28;;;2.00;;
73672;SDS011;61972;19.480;-99.240;2024-03-08T13:58:36;4.22;;;1.70;;
73672;SDS011;61972;19.480;-99.240;2024-03-08T14:01:02;3.53;;;2.10;;
73672;SDS011;61972;19.480;-99.240;2024-03-08T14:03:31;2.88;;;1.77;;
73672;SDS011;61972;19.480;-99.240;2024-03-08T14:05:58;3.05;;;1.60;;
73672;SDS011;61972;19.480;-99.240;2024-03-08T14:08:25;2.85;;;1.70;;
73672;SDS011;61972;19.480;-99.240;2024-03-08T14:10:52;3.20;;;1.90;;
73672;SDS011;61972;19.480;-99.240;2024-03-08T14:13:19;4.20;;;2.07;;
73672;SDS011;61972;19.480;-99.240;2024-03-08T14:15:46;3.35;;;1.70;;
73672;SDS011;61972;19.480;-99.240;2024-03-08T14:18:13;3.22;;;1.90;;
73672;SDS011;61972;19.480;-99.240;2024-03-08T14:20:40;2.78;;;1.60;;
73672;SDS011;61972;19.480;-99.240;2024-03-08T14:23:07;3.65;;;2.00;;
73672;SDS011;61972;19.480;-99.240;2024-03-08T14:25:38;3.27;;;1.67;;
73672;SDS011;61972;19.480;-99.240;2024-03-08T14:28:04;3.67;;;1.90;;
73672;SDS011;61972;19.480;-99.240;2024-03-08T14:30:33;2.97;;;1.60;;
73672;SDS011;61972;19.480;-99.240;2024-03-08T14:33:07;3.28;;;1.67;;
73672;SDS011;61972;19.480;-99.240;2024-03-08T14:35:37;4.05;;;2.10;;